Terminal Aerodrome Forecast
Issued by NWS Charleston, WV

Current Version | Previous Version | Text Only | Print | Product List | Glossary On
Versions: 1 2 3 4 5 6 7 8 9 10 11 12 13 14 15 16 17 18 19 20 21 22 23 24 25 26
000
FTUS41 KRLX 010528
TAFPKB
TAF
KPKB 010528Z 0106/0206 VRB02KT P6SM -SHRA SCT002 BKN012
     FM010800 00000KT 2SM BR BKN002
     FM011200 00000KT 1 1/2SM BR BKN003
     FM011400 VRB02KT 3SM BR SCT016
     FM011500 VRB03KT P6SM SCT045=

USA.gov is the U.S. government's official web portal to all federal, state and local government web resources and services.